sensor_id;sensor_type;location;lat;lon;timestamp;temperature;humidity
81935;DHT22;71405;47.674;-2.050;2023-09-19T00:02:17;22.30;63.70
81935;DHT22;71405;47.674;-2.050;2023-09-19T00:04:43;22.30;63.70
81935;DHT22;71405;47.674;-2.050;2023-09-19T00:07:09;22.30;63.70
81935;DHT22;71405;47.674;-2.050;2023-09-19T00:09:34;22.30;63.70
81935;DHT22;71405;47.674;-2.050;2023-09-19T00:12:05;22.30;63.80
81935;DHT22;71405;47.674;-2.050;2023-09-19T00:14:31;22.30;63.70
81935;DHT22;71405;47.674;-2.050;2023-09-19T00:17:00;22.30;63.70
81935;DHT22;71405;47.674;-2.050;2023-09-19T00:19:26;22.30;63.80
81935;DHT22;71405;47.674;-2.050;2023-09-19T00:21:52;22.30;63.80
81935;DHT22;71405;47.674;-2.050;2023-09-19T00:24:18;22.30;63.80
81935;DHT22;71405;47.674;-2.050;2023-09-19T00:26:44;22.30;63.80
81935;DHT22;71405;47.674;-2.050;2023-09-19T00:29:12;22.30;63.80
81935;DHT22;71405;47.674;-2.050;2023-09-19T00:31:43;22.30;63.60
81935;DHT22;71405;47.674;-2.050;2023-09-19T00:34:09;22.30;63.70
81935;DHT22;71405;47.674;-2.050;2023-09-19T00:36:38;22.30;63.70
81935;DHT22;71405;47.674;-2.050;2023-09-19T00:39:05;22.30;63.80
81935;DHT22;71405;47.674;-2.050;2023-09-19T00:41:32;22.30;63.80
81935;DHT22;71405;47.674;-2.050;2023-09-19T00:43:58;22.30;63.70
81935;DHT22;71405;47.674;-2.050;2023-09-19T00:46:26;22.30;63.80
81935;DHT22;71405;47.674;-2.050;2023-09-19T00:48:52;22.30;63.80
81935;DHT22;71405;47.674;-2.050;2023-09-19T00:51:17;22.30;63.80
81935;DHT22;71405;47.674;-2.050;2023-09-19T00:53:46;22.30;63.70
81935;DHT22;71405;47.674;-2.050;2023-09-19T00:56:13;22.30;63.80
81935;DHT22;71405;47.674;-2.050;2023-09-19T00:58:39;22.30;63.80
81935;DHT22;71405;47.674;-2.050;2023-09-19T01:01:05;22.30;63.70
81935;DHT22;71405;47.674;-2.050;2023-09-19T01:03:36;22.30;63.70
81935;DHT22;71405;47.674;-2.050;2023-09-19T01:06:02;22.30;63.80
81935;DHT22;71405;47.674;-2.050;2023-09-19T01:08:28;22.30;63.80
81935;DHT22;71405;47.674;-2.050;2023-09-19T01:11:11;22.30;63.60
81935;DHT22;71405;47.674;-2.050;2023-09-19T01:30:35;22.30;63.60
81935;DHT22;71405;47.674;-2.050;2023-09-19T01:33:06;22.20;63.60
81935;DHT22;71405;47.674;-2.050;2023-09-19T01:35:32;22.20;63.50
81935;DHT22;71405;47.674;-2.050;2023-09-19T01:37:59;22.20;63.50
81935;DHT22;71405;47.674;-2.050;2023-09-19T01:40:25;22.20;63.60
81935;DHT22;71405;47.674;-2.050;2023-09-19T01:43:03;22.20;63.70
81935;DHT22;71405;47.674;-2.050;2023-09-19T01:45:49;22.20;63.70
81935;DHT22;71405;47.674;-2.050;2023-09-19T01:48:43;22.20;63.70
81935;DHT22;71405;47.674;-2.050;2023-09-19T01:51:21;22.20;63.60
81935;DHT22;71405;47.674;-2.050;2023-09-19T01:53:55;22.20;63.70
81935;DHT22;71405;47.674;-2.050;2023-09-19T01:56:45;22.20;63.60
81935;DHT22;71405;47.674;-2.050;2023-09-19T01:59:17;22.20;63.70
81935;DHT22;71405;47.674;-2.050;2023-09-19T02:01:48;22.20;63.50
81935;DHT22;71405;47.674;-2.050;2023-09-19T02:04:15;22.20;63.50
81935;DHT22;71405;47.674;-2.050;2023-09-19T02:06:41;22.20;63.50
81935;DHT22;71405;47.674;-2.050;2023-09-19T02:09:07;22.20;63.50
81935;DHT22;71405;47.674;-2.050;2023-09-19T02:11:34;22.10;63.40
81935;DHT22;71405;47.674;-2.050;2023-09-19T02:14:01;22.10;63.40
81935;DHT22;71405;47.674;-2.050;2023-09-19T02:16:27;22.20;63.40
81935;DHT22;71405;47.674;-2.050;2023-09-19T02:18:54;22.10;63.40
81935;DHT22;71405;47.674;-2.050;2023-09-19T02:21:20;22.10;63.40
81935;DHT22;71405;47.674;-2.050;2023-09-19T02:23:47;22.20;63.40
81935;DHT22;71405;47.674;-2.050;2023-09-19T02:26:13;22.10;63.50
81935;DHT22;71405;47.674;-2.050;2023-09-19T02:28:40;22.10;63.50
81935;DHT22;71405;47.674;-2.050;2023-09-19T02:31:05;22.10;63.50
81935;DHT22;71405;47.674;-2.050;2023-09-19T02:33:31;22.10;63.50
81935;DHT22;71405;47.674;-2.050;2023-09-19T02:35:58;22.10;63.60
81935;DHT22;71405;47.674;-2.050;2023-09-19T02:38:27;22.10;63.40
81935;DHT22;71405;47.674;-2.050;2023-09-19T02:40:54;22.20;63.40
81935;DHT22;71405;47.674;-2.050;2023-09-19T02:43:23;22.10;63.40
81935;DHT22;71405;47.674;-2.050;2023-09-19T02:45:49;22.10;63.30
81935;DHT22;71405;47.674;-2.050;2023-09-19T02:48:16;22.10;63.30
81935;DHT22;71405;47.674;-2.050;2023-09-19T02:50:42;22.10;63.30
81935;DHT22;71405;47.674;-2.050;2023-09-19T02:53:09;22.10;63.30
81935;DHT22;71405;47.674;-2.050;2023-09-19T02:55:38;22.10;63.30
81935;DHT22;71405;47.674;-2.050;2023-09-19T02:58:06;22.10;63.40
81935;DHT22;71405;47.674;-2.050;2023-09-19T03:00:37;22.10;63.30
81935;DHT22;71405;47.674;-2.050;2023-09-19T03:03:03;22.10;63.30
81935;DHT22;71405;47.674;-2.050;2023-09-19T03:05:30;22.10;63.20
81935;DHT22;71405;47.674;-2.050;2023-09-19T03:07:57;22.10;63.30
81935;DHT22;71405;47.674;-2.050;2023-09-19T03:10:26;22.10;63.30
81935;DHT22;71405;47.674;-2.050;2023-09-19T03:12:52;22.10;63.30
81935;DHT22;71405;47.674;-2.050;2023-09-19T03:15:17;22.10;63.20
81935;DHT22;71405;47.674;-2.050;2023-09-19T03:17:44;22.10;63.20
81935;DHT22;71405;47.674;-2.050;2023-09-19T03:20:11;22.10;63.20
81935;DHT22;71405;47.674;-2.050;2023-09-19T03:22:39;22.10;63.20
81935;DHT22;71405;47.674;-2.050;2023-09-19T03:25:06;22.10;63.20
81935;DHT22;71405;47.674;-2.050;2023-09-19T03:27:37;22.00;63.30
81935;DHT22;71405;47.674;-2.050;2023-09-19T03:30:04;22.10;63.20
81935;DHT22;71405;47.674;-2.050;2023-09-19T03:32:48;22.10;63.20
81935;DHT22;71405;47.674;-2.050;2023-09-19T03:35:16;22.00;63.30
81935;DHT22;71405;47.674;-2.050;2023-09-19T03:37:42;22.00;63.30
81935;DHT22;71405;47.674;-2.050;2023-09-19T03:40:12;22.00;63.20
81935;DHT22;71405;47.674;-2.050;2023-09-19T03:42:41;22.10;63.30
81935;DHT22;71405;47.674;-2.050;2023-09-19T03:45:08;22.00;63.40
81935;DHT22;71405;47.674;-2.050;2023-09-19T03:47:40;22.00;63.30
81935;DHT22;71405;47.674;-2.050;2023-09-19T03:50:07;22.10;63.60
81935;DHT22;71405;47.674;-2.050;2023-09-19T03:52:34;22.00;63.50
81935;DHT22;71405;47.674;-2.050;2023-09-19T03:55:00;22.00;63.30
81935;DHT22;71405;47.674;-2.050;2023-09-19T03:57:26;22.00;63.20
81935;DHT22;71405;47.674;-2.050;2023-09-19T03:59:52;22.00;63.10
81935;DHT22;71405;47.674;-2.050;2023-09-19T04:02:19;22.00;63.00
81935;DHT22;71405;47.674;-2.050;2023-09-19T04:04:49;22.00;63.20
81935;DHT22;71405;47.674;-2.050;2023-09-19T04:07:15;22.00;63.00
81935;DHT22;71405;47.674;-2.050;2023-09-19T04:09:41;22.00;63.00
81935;DHT22;71405;47.674;-2.050;2023-09-19T04:12:07;22.00;63.30
81935;DHT22;71405;47.674;-2.050;2023-09-19T04:14:35;22.00;63.20
81935;DHT22;71405;47.674;-2.050;2023-09-19T04:17:01;22.00;63.20
81935;DHT22;71405;47.674;-2.050;2023-09-19T04:19:27;22.00;63.10
81935;DHT22;71405;47.674;-2.050;2023-09-19T04:21:52;22.00;63.00
81935;DHT22;71405;47.674;-2.050;2023-09-19T04:24:18;22.00;63.10
81935;DHT22;71405;47.674;-2.050;2023-09-19T04:26:45;22.00;63.00
81935;DHT22;71405;47.674;-2.050;2023-09-19T04:29:11;22.00;63.00
81935;DHT22;71405;47.674;-2.050;2023-09-19T04:31:37;22.00;63.20
81935;DHT22;71405;47.674;-2.050;2023-09-19T04:34:03;22.00;63.10
81935;DHT22;71405;47.674;-2.050;2023-09-19T04:36:29;22.00;63.10
81935;DHT22;71405;47.674;-2.050;2023-09-19T04:38:55;22.00;63.00
81935;DHT22;71405;47.674;-2.050;2023-09-19T04:41:21;22.00;63.00
81935;DHT22;71405;47.674;-2.050;2023-09-19T04:43:47;21.90;63.10
81935;DHT22;71405;47.674;-2.050;2023-09-19T04:46:15;22.00;63.10
81935;DHT22;71405;47.674;-2.050;2023-09-19T04:48:40;21.90;63.10
81935;DHT22;71405;47.674;-2.050;2023-09-19T04:51:06;21.90;63.10
81935;DHT22;71405;47.674;-2.050;2023-09-19T04:53:32;21.90;63.00
81935;DHT22;71405;47.674;-2.050;2023-09-19T04:55:58;22.00;63.20
81935;DHT22;71405;47.674;-2.050;2023-09-19T04:58:23;22.00;63.20
81935;DHT22;71405;47.674;-2.050;2023-09-19T05:00:49;21.90;63.20
81935;DHT22;71405;47.674;-2.050;2023-09-19T05:03:16;21.90;63.20
81935;DHT22;71405;47.674;-2.050;2023-09-19T05:05:42;21.90;63.20
81935;DHT22;71405;47.674;-2.050;2023-09-19T05:08:08;21.90;63.20
81935;DHT22;71405;47.674;-2.050;2023-09-19T05:10:35;21.90;63.20
81935;DHT22;71405;47.674;-2.050;2023-09-19T05:13:03;21.90;63.30
81935;DHT22;71405;47.674;-2.050;2023-09-19T05:15:30;21.90;62.80
81935;DHT22;71405;47.674;-2.050;2023-09-19T05:17:56;22.00;62.50
81935;DHT22;71405;47.674;-2.050;2023-09-19T05:20:22;22.00;62.50
81935;DHT22;71405;47.674;-2.050;2023-09-19T05:23:12;22.00;62.50
81935;DHT22;71405;47.674;-2.050;2023-09-19T05:25:40;22.00;62.50
81935;DHT22;71405;47.674;-2.050;2023-09-19T05:28:06;22.00;62.40
81935;DHT22;71405;47.674;-2.050;2023-09-19T05:30:33;22.00;62.70
81935;DHT22;71405;47.674;-2.050;2023-09-19T05:33:04;21.90;62.80
81935;DHT22;71405;47.674;-2.050;2023-09-19T05:35:31;21.90;62.90
81935;DHT22;71405;47.674;-2.050;2023-09-19T05:37:57;21.90;62.80
81935;DHT22;71405;47.674;-2.050;2023-09-19T05:40:24;21.90;62.90
81935;DHT22;71405;47.674;-2.050;2023-09-19T05:42:51;21.90;62.90
81935;DHT22;71405;47.674;-2.050;2023-09-19T05:45:17;21.90;62.90
81935;DHT22;71405;47.674;-2.050;2023-09-19T05:47:50;21.90;62.90
81935;DHT22;71405;47.674;-2.050;2023-09-19T05:50:16;21.90;62.90
81935;DHT22;71405;47.674;-2.050;2023-09-19T05:52:47;21.90;63.00
81935;DHT22;71405;47.674;-2.050;2023-09-19T05:55:17;21.90;63.10
81935;DHT22;71405;47.674;-2.050;2023-09-19T05:57:43;21.90;62.90
81935;DHT22;71405;47.674;-2.050;2023-09-19T06:00:15;21.90;63.10
81935;DHT22;71405;47.674;-2.050;2023-09-19T06:02:43;21.90;63.00
81935;DHT22;71405;47.674;-2.050;2023-09-19T06:05:10;21.90;63.00
81935;DHT22;71405;47.674;-2.050;2023-09-19T06:07:39;21.90;63.20
81935;DHT22;71405;47.674;-2.050;2023-09-19T06:10:05;21.90;63.20
81935;DHT22;71405;47.674;-2.050;2023-09-19T06:12:41;21.90;63.10
81935;DHT22;71405;47.674;-2.050;2023-09-19T06:15:11;21.90;63.20
81935;DHT22;71405;47.674;-2.050;2023-09-19T06:17:54;21.90;63.30
81935;DHT22;71405;47.674;-2.050;2023-09-19T06:20:20;21.90;63.40
81935;DHT22;71405;47.674;-2.050;2023-09-19T06:22:48;21.90;63.90
81935;DHT22;71405;47.674;-2.050;2023-09-19T06:25:14;21.90;64.00
81935;DHT22;71405;47.674;-2.050;2023-09-19T06:27:53;21.90;64.00
81935;DHT22;71405;47.674;-2.050;2023-09-19T06:30:20;21.90;64.10
81935;DHT22;71405;47.674;-2.050;2023-09-19T06:32:47;21.90;64.20
81935;DHT22;71405;47.674;-2.050;2023-09-19T06:35:14;21.90;64.10
81935;DHT22;71405;47.674;-2.050;2023-09-19T06:37:41;21.90;64.10
81935;DHT22;71405;47.674;-2.050;2023-09-19T06:40:11;21.90;64.10
81935;DHT22;71405;47.674;-2.050;2023-09-19T06:42:41;21.90;64.20
81935;DHT22;71405;47.674;-2.050;2023-09-19T06:45:08;21.90;64.20
81935;DHT22;71405;47.674;-2.050;2023-09-19T06:47:34;21.90;64.20
81935;DHT22;71405;47.674;-2.050;2023-09-19T06:49:59;21.90;64.30
81935;DHT22;71405;47.674;-2.050;2023-09-19T06:52:28;21.90;64.30
81935;DHT22;71405;47.674;-2.050;2023-09-19T06:54:53;21.90;64.30
81935;DHT22;71405;47.674;-2.050;2023-09-19T06:57:19;21.90;64.50
81935;DHT22;71405;47.674;-2.050;2023-09-19T06:59:45;21.90;64.30
81935;DHT22;71405;47.674;-2.050;2023-09-19T07:02:11;21.90;64.40
81935;DHT22;71405;47.674;-2.050;2023-09-19T07:04:37;21.90;64.40
81935;DHT22;71405;47.674;-2.050;2023-09-19T07:07:03;21.90;64.20
81935;DHT22;71405;47.674;-2.050;2023-09-19T07:09:29;21.90;64.20
81935;DHT22;71405;47.674;-2.050;2023-09-19T07:11:55;21.90;64.20
81935;DHT22;71405;47.674;-2.050;2023-09-19T07:14:21;21.90;64.30
81935;DHT22;71405;47.674;-2.050;2023-09-19T07:16:47;21.80;64.20
81935;DHT22;71405;47.674;-2.050;2023-09-19T07:19:15;21.80;64.20
81935;DHT22;71405;47.674;-2.050;2023-09-19T07:21:40;21.90;64.20
81935;DHT22;71405;47.674;-2.050;2023-09-19T07:24:07;21.80;64.10
81935;DHT22;71405;47.674;-2.050;2023-09-19T07:26:33;21.90;64.20
81935;DHT22;71405;47.674;-2.050;2023-09-19T07:28:59;21.80;64.30
81935;DHT22;71405;47.674;-2.050;2023-09-19T07:31:27;21.80;64.20
81935;DHT22;71405;47.674;-2.050;2023-09-19T07:33:54;21.80;64.20
81935;DHT22;71405;47.674;-2.050;2023-09-19T07:36:19;21.80;64.20
81935;DHT22;71405;47.674;-2.050;2023-09-19T07:38:45;21.80;64.20
81935;DHT22;71405;47.674;-2.050;2023-09-19T07:41:11;21.80;64.20
81935;DHT22;71405;47.674;-2.050;2023-09-19T07:43:37;21.80;64.20
81935;DHT22;71405;47.674;-2.050;2023-09-19T07:46:08;21.90;64.20
81935;DHT22;71405;47.674;-2.050;2023-09-19T07:48:37;21.90;64.20
81935;DHT22;71405;47.674;-2.050;2023-09-19T07:51:05;21.80;64.20
81935;DHT22;71405;47.674;-2.050;2023-09-19T07:53:32;21.90;64.00
81935;DHT22;71405;47.674;-2.050;2023-09-19T07:56:08;21.90;63.80
81935;DHT22;71405;47.674;-2.050;2023-09-19T07:58:34;21.90;63.90
81935;DHT22;71405;47.674;-2.050;2023-09-19T08:01:08;21.90;63.60
81935;DHT22;71405;47.674;-2.050;2023-09-19T08:03:34;21.80;63.70
81935;DHT22;71405;47.674;-2.050;2023-09-19T08:06:00;21.80;63.80
81935;DHT22;71405;47.674;-2.050;2023-09-19T08:08:27;21.80;63.80
81935;DHT22;71405;47.674;-2.050;2023-09-19T08:10:54;21.80;63.80
81935;DHT22;71405;47.674;-2.050;2023-09-19T08:13:25;21.80;63.90
81935;DHT22;71405;47.674;-2.050;2023-09-19T08:15:51;21.80;63.90
81935;DHT22;71405;47.674;-2.050;2023-09-19T08:18:20;21.80;64.00
81935;DHT22;71405;47.674;-2.050;2023-09-19T08:20:51;21.80;63.80
81935;DHT22;71405;47.674;-2.050;2023-09-19T08:23:18;21.80;63.80
81935;DHT22;71405;47.674;-2.050;2023-09-19T08:25:46;21.80;63.80
81935;DHT22;71405;47.674;-2.050;2023-09-19T08:28:11;21.80;63.90
81935;DHT22;71405;47.674;-2.050;2023-09-19T08:30:39;21.80;63.90
81935;DHT22;71405;47.674;-2.050;2023-09-19T08:33:06;21.80;63.90
81935;DHT22;71405;47.674;-2.050;2023-09-19T08:35:33;21.80;63.90
81935;DHT22;71405;47.674;-2.050;2023-09-19T08:37:59;21.80;64.00
81935;DHT22;71405;47.674;-2.050;2023-09-19T08:40:30;21.80;64.10
81935;DHT22;71405;47.674;-2.050;2023-09-19T08:42:59;21.80;64.20
81935;DHT22;71405;47.674;-2.050;2023-09-19T08:45:25;21.80;64.10
81935;DHT22;71405;47.674;-2.050;2023-09-19T08:48:27;21.80;64.20
81935;DHT22;71405;47.674;-2.050;2023-09-19T08:51:07;21.80;64.20
81935;DHT22;71405;47.674;-2.050;2023-09-19T08:56:26;21.70;64.40
81935;DHT22;71405;47.674;-2.050;2023-09-19T08:58:57;21.70;64.40
81935;DHT22;71405;47.674;-2.050;2023-09-19T09:01:27;21.70;64.50
81935;DHT22;71405;47.674;-2.050;2023-09-19T09:03:54;21.70;64.50
81935;DHT22;71405;47.674;-2.050;2023-09-19T09:06:21;21.70;64.40
81935;DHT22;71405;47.674;-2.050;2023-09-19T09:08:47;21.80;64.30
81935;DHT22;71405;47.674;-2.050;2023-09-19T09:11:16;21.80;64.30
81935;DHT22;71405;47.674;-2.050;2023-09-19T09:13:44;21.80;64.30
81935;DHT22;71405;47.674;-2.050;2023-09-19T09:16:10;21.80;64.40
81935;DHT22;71405;47.674;-2.050;2023-09-19T09:18:36;21.80;64.20
81935;DHT22;71405;47.674;-2.050;2023-09-19T09:21:02;21.80;64.20
81935;DHT22;71405;47.674;-2.050;2023-09-19T09:23:30;21.80;64.10
81935;DHT22;71405;47.674;-2.050;2023-09-19T09:25:58;21.80;64.20
81935;DHT22;71405;47.674;-2.050;2023-09-19T09:28:33;21.80;64.10
81935;DHT22;71405;47.674;-2.050;2023-09-19T09:31:00;21.80;64.00
81935;DHT22;71405;47.674;-2.050;2023-09-19T09:33:28;21.80;64.00
81935;DHT22;71405;47.674;-2.050;2023-09-19T09:36:01;21.80;63.90
81935;DHT22;71405;47.674;-2.050;2023-09-19T09:38:47;21.80;63.80
81935;DHT22;71405;47.674;-2.050;2023-09-19T09:41:15;21.80;63.80
81935;DHT22;71405;47.674;-2.050;2023-09-19T09:43:42;21.80;63.70
81935;DHT22;71405;47.674;-2.050;2023-09-19T09:49:03;21.80;63.70
81935;DHT22;71405;47.674;-2.050;2023-09-19T09:52:04;21.80;63.60
81935;DHT22;71405;47.674;-2.050;2023-09-19T09:54:34;21.80;63.50
81935;DHT22;71405;47.674;-2.050;2023-09-19T09:57:10;21.80;63.50
81935;DHT22;71405;47.674;-2.050;2023-09-19T09:59:58;21.80;63.40
81935;DHT22;71405;47.674;-2.050;2023-09-19T10:02:30;21.80;63.60
81935;DHT22;71405;47.674;-2.050;2023-09-19T10:05:16;21.90;63.50
81935;DHT22;71405;47.674;-2.050;2023-09-19T10:07:53;21.90;63.30
81935;DHT22;71405;47.674;-2.050;2023-09-19T10:10:34;21.90;63.20
81935;DHT22;71405;47.674;-2.050;2023-09-19T10:13:07;21.90;63.20
81935;DHT22;71405;47.674;-2.050;2023-09-19T10:15:33;21.90;62.90
81935;DHT22;71405;47.674;-2.050;2023-09-19T10:18:01;21.90;62.80
81935;DHT22;71405;47.674;-2.050;2023-09-19T10:20:30;21.80;62.80
81935;DHT22;71405;47.674;-2.050;2023-09-19T10:23:01;21.90;63.00
81935;DHT22;71405;47.674;-2.050;2023-09-19T10:25:29;21.90;63.00
81935;DHT22;71405;47.674;-2.050;2023-09-19T10:27:58;21.90;62.90
81935;DHT22;71405;47.674;-2.050;2023-09-19T10:30:29;21.90;63.00
81935;DHT22;71405;47.674;-2.050;2023-09-19T10:33:03;21.90;62.70
81935;DHT22;71405;47.674;-2.050;2023-09-19T10:35:29;22.00;62.70
81935;DHT22;71405;47.674;-2.050;2023-09-19T10:37:59;22.00;62.60
81935;DHT22;71405;47.674;-2.050;2023-09-19T10:40:27;21.90;62.20
81935;DHT22;71405;47.674;-2.050;2023-09-19T10:43:01;21.90;62.50
81935;DHT22;71405;47.674;-2.050;2023-09-19T10:45:32;22.00;62.70
81935;DHT22;71405;47.674;-2.050;2023-09-19T10:48:00;22.00;62.70
81935;DHT22;71405;47.674;-2.050;2023-09-19T10:50:36;22.00;62.60
81935;DHT22;71405;47.674;-2.050;2023-09-19T10:53:07;21.90;62.30
81935;DHT22;71405;47.674;-2.050;2023-09-19T10:55:36;21.90;62.40
81935;DHT22;71405;47.674;-2.050;2023-09-19T10:58:02;22.00;62.60
81935;DHT22;71405;47.674;-2.050;2023-09-19T11:00:53;22.00;62.70
81935;DHT22;71405;47.674;-2.050;2023-09-19T11:03:20;22.00;62.80
81935;DHT22;71405;47.674;-2.050;2023-09-19T11:06:03;22.00;62.70
81935;DHT22;71405;47.674;-2.050;2023-09-19T11:08:30;22.00;62.40
81935;DHT22;71405;47.674;-2.050;2023-09-19T11:10:58;22.00;62.20
81935;DHT22;71405;47.674;-2.050;2023-09-19T11:13:28;22.00;62.10
81935;DHT22;71405;47.674;-2.050;2023-09-19T11:26:48;22.00;62.20
81935;DHT22;71405;47.674;-2.050;2023-09-19T11:29:27;22.00;62.20
81935;DHT22;71405;47.674;-2.050;2023-09-19T11:31:55;21.90;62.20
81935;DHT22;71405;47.674;-2.050;2023-09-19T11:34:37;21.90;62.10
81935;DHT22;71405;47.674;-2.050;2023-09-19T11:40:10;21.90;62.10
81935;DHT22;71405;47.674;-2.050;2023-09-19T11:42:48;21.90;62.10
81935;DHT22;71405;47.674;-2.050;2023-09-19T11:48:18;21.90;62.10
81935;DHT22;71405;47.674;-2.050;2023-09-19T11:50:45;21.90;62.00
81935;DHT22;71405;47.674;-2.050;2023-09-19T11:53:13;22.00;61.90
81935;DHT22;71405;47.674;-2.050;2023-09-19T11:55:40;22.00;61.80
81935;DHT22;71405;47.674;-2.050;2023-09-19T11:58:08;22.00;61.90
81935;DHT22;71405;47.674;-2.050;2023-09-19T12:00:35;21.90;62.10
81935;DHT22;71405;47.674;-2.050;2023-09-19T12:03:09;21.90;62.10
81935;DHT22;71405;47.674;-2.050;2023-09-19T12:05:36;21.90;62.20
81935;DHT22;71405;47.674;-2.050;2023-09-19T12:08:04;21.90;62.20
81935;DHT22;71405;47.674;-2.050;2023-09-19T12:10:33;21.90;62.30
81935;DHT22;71405;47.674;-2.050;2023-09-19T12:12:59;21.90;62.30
81935;DHT22;71405;47.674;-2.050;2023-09-19T12:15:28;21.90;62.10
81935;DHT22;71405;47.674;-2.050;2023-09-19T12:18:00;21.90;61.90
81935;DHT22;71405;47.674;-2.050;2023-09-19T12:20:43;21.90;62.00
81935;DHT22;71405;47.674;-2.050;2023-09-19T12:23:14;21.80;62.10
81935;DHT22;71405;47.674;-2.050;2023-09-19T12:25:44;21.90;62.20
81935;DHT22;71405;47.674;-2.050;2023-09-19T12:28:15;21.80;62.00
81935;DHT22;71405;47.674;-2.050;2023-09-19T12:30:42;21.90;62.00
81935;DHT22;71405;47.674;-2.050;2023-09-19T12:33:18;21.90;61.90
81935;DHT22;71405;47.674;-2.050;2023-09-19T12:35:51;21.90;61.80
81935;DHT22;71405;47.674;-2.050;2023-09-19T12:38:26;21.90;61.70
81935;DHT22;71405;47.674;-2.050;2023-09-19T12:40:59;21.80;61.20
81935;DHT22;71405;47.674;-2.050;2023-09-19T12:43:26;21.90;61.00
81935;DHT22;71405;47.674;-2.050;2023-09-19T12:45:52;21.90;61.10
81935;DHT22;71405;47.674;-2.050;2023-09-19T12:51:12;21.90;60.60
81935;DHT22;71405;47.674;-2.050;2023-09-19T12:53:42;21.90;60.50
81935;DHT22;71405;47.674;-2.050;2023-09-19T12:56:13;21.90;60.60
81935;DHT22;71405;47.674;-2.050;2023-09-19T13:01:15;21.90;60.40
81935;DHT22;71405;47.674;-2.050;2023-09-19T13:03:41;21.90;60.10
81935;DHT22;71405;47.674;-2.050;2023-09-19T13:06:07;21.90;59.70
81935;DHT22;71405;47.674;-2.050;2023-09-19T13:08:37;21.80;59.80
81935;DHT22;71405;47.674;-2.050;2023-09-19T13:11:15;21.80;59.80
81935;DHT22;71405;47.674;-2.050;2023-09-19T13:14:13;21.80;59.70
81935;DHT22;71405;47.674;-2.050;2023-09-19T13:17:02;21.80;59.70
81935;DHT22;71405;47.674;-2.050;2023-09-19T13:19:46;21.80;59.90
81935;DHT22;71405;47.674;-2.050;2023-09-19T13:22:41;21.90;60.10
81935;DHT22;71405;47.674;-2.050;2023-09-19T13:25:16;21.80;60.30
81935;DHT22;71405;47.674;-2.050;2023-09-19T13:27:53;21.80;60.30
81935;DHT22;71405;47.674;-2.050;2023-09-19T13:30:20;21.80;60.50
81935;DHT22;71405;47.674;-2.050;2023-09-19T13:32:47;21.80;60.50
81935;DHT22;71405;47.674;-2.050;2023-09-19T13:35:13;21.80;60.50
81935;DHT22;71405;47.674;-2.050;2023-09-19T13:37:40;21.80;60.70
81935;DHT22;71405;47.674;-2.050;2023-09-19T13:40:13;21.80;60.60
81935;DHT22;71405;47.674;-2.050;2023-09-19T13:42:39;21.60;61.00
81935;DHT22;71405;47.674;-2.050;2023-09-19T13:45:06;21.60;61.40
81935;DHT22;71405;47.674;-2.050;2023-09-19T13:47:36;21.70;61.60
81935;DHT22;71405;47.674;-2.050;2023-09-19T13:50:03;21.70;61.90
81935;DHT22;71405;47.674;-2.050;2023-09-19T13:52:31;21.70;61.50
81935;DHT22;71405;47.674;-2.050;2023-09-19T13:54:57;21.60;61.10
81935;DHT22;71405;47.674;-2.050;2023-09-19T13:57:24;21.50;61.00
81935;DHT22;71405;47.674;-2.050;2023-09-19T13:59:50;21.50;60.90
81935;DHT22;71405;47.674;-2.050;2023-09-19T14:02:17;21.60;61.10
81935;DHT22;71405;47.674;-2.050;2023-09-19T14:04:44;21.60;61.50
81935;DHT22;71405;47.674;-2.050;2023-09-19T14:07:10;21.70;61.80
81935;DHT22;71405;47.674;-2.050;2023-09-19T14:09:41;21.80;61.80
81935;DHT22;71405;47.674;-2.050;2023-09-19T14:12:06;21.90;61.60
81935;DHT22;71405;47.674;-2.050;2023-09-19T14:14:32;21.90;61.30
81935;DHT22;71405;47.674;-2.050;2023-09-19T14:16:58;22.00;61.20
81935;DHT22;71405;47.674;-2.050;2023-09-19T14:19:26;22.00;61.10
81935;DHT22;71405;47.674;-2.050;2023-09-19T14:21:52;22.00;61.20
81935;DHT22;71405;47.674;-2.050;2023-09-19T14:24:21;22.10;61.20
81935;DHT22;71405;47.674;-2.050;2023-09-19T14:26:46;22.10;61.10
81935;DHT22;71405;47.674;-2.050;2023-09-19T14:29:13;22.10;61.10
81935;DHT22;71405;47.674;-2.050;2023-09-19T14:31:40;22.10;61.00
81935;DHT22;71405;47.674;-2.050;2023-09-19T14:34:06;22.10;60.90
81935;DHT22;71405;47.674;-2.050;2023-09-19T14:36:32;22.10;60.90
81935;DHT22;71405;47.674;-2.050;2023-09-19T14:38:58;22.10;60.80
81935;DHT22;71405;47.674;-2.050;2023-09-19T14:41:24;22.10;60.70
81935;DHT22;71405;47.674;-2.050;2023-09-19T14:43:54;22.10;60.90
81935;DHT22;71405;47.674;-2.050;2023-09-19T14:46:23;22.10;60.90
81935;DHT22;71405;47.674;-2.050;2023-09-19T14:48:52;22.10;61.00
81935;DHT22;71405;47.674;-2.050;2023-09-19T14:51:18;22.00;60.90
81935;DHT22;71405;47.674;-2.050;2023-09-19T14:53:45;22.00;60.70
81935;DHT22;71405;47.674;-2.050;2023-09-19T14:56:11;22.00;60.70
81935;DHT22;71405;47.674;-2.050;2023-09-19T14:58:38;22.00;60.70
81935;DHT22;71405;47.674;-2.050;2023-09-19T15:01:07;22.00;60.50
81935;DHT22;71405;47.674;-2.050;2023-09-19T15:03:34;22.00;60.40
81935;DHT22;71405;47.674;-2.050;2023-09-19T15:06:02;22.00;60.30
81935;DHT22;71405;47.674;-2.050;2023-09-19T15:08:30;22.00;60.30
81935;DHT22;71405;47.674;-2.050;2023-09-19T15:10:56;22.00;60.30
81935;DHT22;71405;47.674;-2.050;2023-09-19T15:13:24;22.00;60.30
81935;DHT22;71405;47.674;-2.050;2023-09-19T15:16:08;22.00;60.40
81935;DHT22;71405;47.674;-2.050;2023-09-19T15:18:38;22.00;60.50
81935;DHT22;71405;47.674;-2.050;2023-09-19T15:21:05;22.00;60.40
81935;DHT22;71405;47.674;-2.050;2023-09-19T15:23:34;22.00;60.50
81935;DHT22;71405;47.674;-2.050;2023-09-19T15:26:08;22.00;60.50
81935;DHT22;71405;47.674;-2.050;2023-09-19T15:28:34;22.00;60.50
81935;DHT22;71405;47.674;-2.050;2023-09-19T15:31:06;22.00;60.80
81935;DHT22;71405;47.674;-2.050;2023-09-19T15:33:32;22.00;60.80
81935;DHT22;71405;47.674;-2.050;2023-09-19T15:36:05;22.10;61.00
81935;DHT22;71405;47.674;-2.050;2023-09-19T15:38:32;22.10;61.10
81935;DHT22;71405;47.674;-2.050;2023-09-19T15:41:19;22.10;61.00
81935;DHT22;71405;47.674;-2.050;2023-09-19T15:43:46;22.10;60.90
81935;DHT22;71405;47.674;-2.050;2023-09-19T15:46:12;22.10;61.10
81935;DHT22;71405;47.674;-2.050;2023-09-19T15:48:39;22.10;61.20
81935;DHT22;71405;47.674;-2.050;2023-09-19T15:51:04;22.10;61.00
81935;DHT22;71405;47.674;-2.050;2023-09-19T15:53:52;22.00;61.20
81935;DHT22;71405;47.674;-2.050;2023-09-19T15:56:19;22.00;61.10
81935;DHT22;71405;47.674;-2.050;2023-09-19T15:58:52;22.00;61.10
81935;DHT22;71405;47.674;-2.050;2023-09-19T16:01:19;22.00;61.20
81935;DHT22;71405;47.674;-2.050;2023-09-19T16:03:47;22.00;61.40
81935;DHT22;71405;47.674;-2.050;2023-09-19T16:06:19;22.00;61.40
81935;DHT22;71405;47.674;-2.050;2023-09-19T16:08:48;22.00;61.40
81935;DHT22;71405;47.674;-2.050;2023-09-19T16:11:14;22.00;61.50
81935;DHT22;71405;47.674;-2.050;2023-09-19T16:13:41;22.00;61.50